This is the latest recevied weather packets stored in our database for station/object EFTU. If no packets are shown the sender has not sent any weather packets the latest 10 day(s).
| Time | Temp. | Humidity | Pressure | Rain* | Wind** | Luminosity | Snow |
|---|---|---|---|---|---|---|---|
| 1777770430 | 4.44° C | 89% | 1005.8 hPa | - | - | - | - |
| 1777769230 | 6.11° C | 83% | 1005.5 hPa | - | - | - | - |
| 1777768030 | 5.56° C | 87% | 1005.9 hPa | - | - | - | - |
| 1777766830 | 4.44° C | 86% | 1006.1 hPa | - | - | - | - |
| 1777765630 | 6.11° C | 86% | 1005.9 hPa | - | - | - | - |
| 1777764429 | 6.67° C | 81% | 1005.8 hPa | - | - | - | - |
| 1777763229 | 7.78° C | 78% | 1005.5 hPa | - | - | - | - |
| 1777762030 | 6.11° C | 83% | 1005.9 hPa | - | - | - | - |
| 1777760830 | 7.78° C | 76% | 1005.9 hPa | - | - | - | - |
| 1777759630 | 8.89° C | 72% | 1006 hPa | - | - | - | - |
| 1777758429 | 8.33° C | 73% | 1006.3 hPa | - | - | - | - |
| 1777757229 | 8.89° C | 72% | 1006.6 hPa | - | - | - | - |
| 1777756029 | 10° C | 68% | 1006.2 hPa | - | - | - | - |
| 1777754830 | 10° C | 66% | 1006.3 hPa | - | - | - | - |
| 1777753628 | 11.11° C | 62% | 1006.6 hPa | - | - | - | - |
| 1777752429 | 11.67° C | 60% | 1006.6 hPa | - | - | - | - |
| 1777751228 | 11.67° C | 58% | 1006.6 hPa | - | - | - | - |
| 1777750029 | 11.67° C | 59% | 1006.8 hPa | - | - | - | - |
| 1777748828 | 12.22° C | 58% | 1007.1 hPa | - | - | - | - |
| 1777747628 | 12.22° C | 58% | 1007.2 hPa | - | - | - | - |
| 1777746429 | 12.78° C | 56% | 1007.4 hPa | - | - | - | - |
| 1777745228 | 12.78° C | 54% | 1007.6 hPa | - | - | - | - |
| 1777744028 | 13.33° C | 53% | 1007.7 hPa | - | - | - | - |
| 1777742828 | 13.33° C | 53% | 1007.9 hPa | - | - | - | - |
| 1777741627 | 13.89° C | 51% | 1008 hPa | - | - | - | - |
* Rain since midnight (hover to see other rain measurements)
** Current wind speed in m/s (hover to see current wind gust speed)